createdAt,value
2022-10-14T00:01:19.985Z,9.80
2022-10-14T00:03:47.266Z,9.48
2022-10-14T00:06:20.205Z,9.77
2022-10-14T00:08:49.641Z,9.10
2022-10-14T00:11:25.118Z,11.53
2022-10-14T00:13:56.736Z,11.48
2022-10-14T00:16:32.950Z,9.90
2022-10-14T00:18:59.868Z,10.90
2022-10-14T00:21:28.509Z,12.65
2022-10-14T00:23:58.436Z,11.75
2022-10-14T00:26:37.572Z,9.40
2022-10-14T00:29:10.959Z,8.80
2022-10-14T00:31:37.621Z,8.50
2022-10-14T00:34:12.738Z,8.40
2022-10-14T00:36:43.534Z,9.90
2022-10-14T00:39:17.492Z,8.80
2022-10-14T00:41:54.855Z,8.02
2022-10-14T00:44:21.478Z,9.98
2022-10-14T00:46:49.886Z,6.72
2022-10-14T00:49:38.251Z,8.82
2022-10-14T00:52:16.939Z,9.98
2022-10-14T00:54:53.407Z,7.70
2022-10-14T00:57:22.045Z,7.00
2022-10-14T00:59:53.080Z,8.93
2022-10-14T01:02:19.709Z,7.60
2022-10-14T01:04:51.242Z,7.30
2022-10-14T01:07:47.808Z,7.03
2022-10-14T01:10:24.564Z,6.80
2022-10-14T01:13:04.004Z,6.68
2022-10-14T01:15:43.196Z,5.88
2022-10-14T01:18:47.404Z,6.70
2022-10-14T01:21:42.150Z,5.93
2022-10-14T01:24:22.948Z,7.43
2022-10-14T01:27:40.539Z,6.20
2022-10-14T01:30:24.126Z,5.50
2022-10-14T01:33:09.005Z,6.30
2022-10-14T01:35:47.666Z,5.35
2022-10-14T01:38:39.157Z,7.32
2022-10-14T01:41:15.413Z,4.95
2022-10-14T01:43:47.612Z,5.38
2022-10-14T01:46:18.272Z,4.55
2022-10-14T01:48:50.673Z,4.90
2022-10-14T01:53:58.800Z,5.00
2022-10-14T01:56:34.997Z,6.78
2022-10-14T01:59:08.746Z,5.90
2022-10-14T02:01:38.371Z,5.97
2022-10-14T02:04:17.003Z,5.63
2022-10-14T02:06:48.542Z,5.93
2022-10-14T02:09:38.846Z,5.00
2022-10-14T02:12:18.833Z,5.53
2022-10-14T02:15:36.070Z,5.00
2022-10-14T02:18:11.329Z,5.30
2022-10-14T02:20:48.036Z,5.10
2022-10-14T02:23:22.982Z,5.50
2022-10-14T02:25:51.074Z,4.80
2022-10-14T02:28:21.825Z,5.90
2022-10-14T02:30:59.237Z,5.72
2022-10-14T02:33:33.079Z,5.40
2022-10-14T02:36:04.477Z,5.97
2022-10-14T02:38:35.841Z,5.28
2022-10-14T02:41:12.877Z,5.45
2022-10-14T02:43:41.644Z,7.70
2022-10-14T02:46:10.785Z,6.55
2022-10-14T02:48:37.644Z,5.88
2022-10-14T02:51:04.497Z,6.07
2022-10-14T02:53:31.213Z,6.43
2022-10-14T02:55:58.818Z,5.95
2022-10-14T02:58:25.637Z,6.15
2022-10-14T03:00:53.959Z,5.72
2022-10-14T03:03:22.841Z,6.35
2022-10-14T03:05:49.587Z,6.07
2022-10-14T03:08:17.579Z,7.03
2022-10-14T03:10:50.884Z,6.95
2022-10-14T03:13:20.605Z,6.22
2022-10-14T03:15:50.841Z,6.60
2022-10-14T03:18:19.167Z,6.63
2022-10-14T03:20:48.513Z,6.15
2022-10-14T03:23:21.733Z,6.40
2022-10-14T03:25:50.686Z,7.30
2022-10-14T03:28:23.382Z,6.47
2022-10-14T03:30:56.847Z,6.28
2022-10-14T03:33:55.250Z,6.22
2022-10-14T03:36:25.085Z,5.95
2022-10-14T03:38:53.850Z,7.47
2022-10-14T03:41:33.577Z,5.38
2022-10-14T03:44:00.462Z,5.60
2022-10-14T03:46:29.726Z,5.20
2022-10-14T03:48:57.525Z,5.13
2022-10-14T03:51:24.642Z,5.75
2022-10-14T03:53:59.232Z,5.90
2022-10-14T03:56:28.739Z,5.70
2022-10-14T03:58:55.486Z,5.25
2022-10-14T04:01:26.170Z,5.53
2022-10-14T04:04:08.936Z,5.97
2022-10-14T04:06:36.619Z,6.97
2022-10-14T04:09:10.035Z,5.28
2022-10-14T04:11:39.719Z,5.00
2022-10-14T04:14:12.359Z,5.63
2022-10-14T04:16:51.068Z,5.13
2022-10-14T04:19:21.721Z,4.82
2022-10-14T04:21:49.191Z,4.90
2022-10-14T04:24:20.341Z,4.82
2022-10-14T04:26:52.860Z,4.50
2022-10-14T04:29:35.429Z,6.55
2022-10-14T04:34:38.731Z,5.90
2022-10-14T04:37:07.204Z,5.57
2022-10-14T04:39:57.061Z,6.65
2022-10-14T04:42:23.991Z,6.18
2022-10-14T04:44:54.843Z,6.50
2022-10-14T04:47:29.268Z,6.50
2022-10-14T04:50:00.637Z,6.50
2022-10-14T04:52:29.570Z,6.47
2022-10-14T04:55:10.503Z,7.47
2022-10-14T04:57:43.741Z,6.05
2022-10-14T05:00:12.521Z,5.88
2022-10-14T05:02:41.906Z,5.90
2022-10-14T05:05:09.106Z,6.15
2022-10-14T05:07:38.763Z,5.97
2022-10-14T05:10:21.692Z,5.15
2022-10-14T05:12:48.800Z,5.40
2022-10-14T05:15:16.537Z,5.68
2022-10-14T05:17:59.837Z,6.07
2022-10-14T05:20:42.409Z,4.57
2022-10-14T05:23:09.093Z,4.10
2022-10-14T05:25:35.771Z,4.85
2022-10-14T05:28:02.592Z,4.15
2022-10-14T05:30:34.513Z,4.20
2022-10-14T05:33:03.431Z,5.43
2022-10-14T05:35:56.940Z,4.07
2022-10-14T05:38:17.605Z,4.05
2022-10-14T05:40:55.014Z,4.97
2022-10-14T05:43:22.225Z,4.80
2022-10-14T05:45:48.964Z,5.68
2022-10-14T05:48:15.916Z,5.13
2022-10-14T05:50:43.632Z,5.45
2022-10-14T05:53:16.923Z,4.78
2022-10-14T05:55:47.714Z,6.07
2022-10-14T05:58:14.907Z,4.80
2022-10-14T06:00:46.327Z,4.78
2022-10-14T06:03:17.570Z,5.00
2022-10-14T06:05:45.306Z,6.40
2022-10-14T06:08:11.975Z,5.90
2022-10-14T06:10:38.901Z,5.13
2022-10-14T06:13:05.600Z,6.97
2022-10-14T06:15:35.600Z,8.02
2022-10-14T06:18:02.378Z,8.98
2022-10-14T06:20:29.431Z,7.05
2022-10-14T06:22:58.468Z,6.20
2022-10-14T06:25:25.308Z,6.10
2022-10-14T06:27:52.018Z,5.97
2022-10-14T06:30:18.729Z,5.88
2022-10-14T06:32:47.861Z,7.85
2022-10-14T06:35:14.533Z,6.30
2022-10-14T06:37:47.662Z,6.00
2022-10-14T06:40:14.362Z,6.35
2022-10-14T06:42:40.934Z,6.63
2022-10-14T06:45:08.637Z,6.20
2022-10-14T06:47:35.294Z,6.88
2022-10-14T06:50:01.931Z,5.80
2022-10-14T06:52:30.712Z,5.80
2022-10-14T06:54:58.016Z,6.68
2022-10-14T06:57:25.985Z,7.53
2022-10-14T06:59:52.589Z,5.13
2022-10-14T07:02:19.593Z,4.90
2022-10-14T07:04:46.474Z,5.30
2022-10-14T07:07:13.068Z,5.15
2022-10-14T07:09:39.701Z,6.03
2022-10-14T07:12:06.654Z,4.90
2022-10-14T07:14:33.403Z,5.28
2022-10-14T07:17:00.929Z,5.38
2022-10-14T07:19:27.612Z,6.32
2022-10-14T07:21:54.370Z,4.47
2022-10-14T07:24:21.182Z,5.30
2022-10-14T07:26:47.881Z,5.00
2022-10-14T07:29:14.553Z,4.07
2022-10-14T07:31:41.920Z,5.25
2022-10-14T07:34:08.761Z,4.25
2022-10-14T07:36:35.606Z,5.15
2022-10-14T07:39:05.813Z,4.20
2022-10-14T07:41:33.021Z,6.18
2022-10-14T07:44:03.098Z,4.78
2022-10-14T07:46:32.083Z,4.82
2022-10-14T07:49:03.072Z,4.82
2022-10-14T07:51:30.194Z,4.53
2022-10-14T07:53:58.774Z,5.07
2022-10-14T07:56:26.416Z,4.68
2022-10-14T07:58:54.002Z,4.63
2022-10-14T08:01:20.901Z,4.22
2022-10-14T08:03:48.790Z,3.95
2022-10-14T08:06:15.763Z,5.65
2022-10-14T08:08:43.883Z,5.65
2022-10-14T08:11:14.050Z,3.30
2022-10-14T08:13:45.090Z,3.17
2022-10-14T08:16:20.023Z,3.13
2022-10-14T08:18:47.435Z,3.58
2022-10-14T08:21:15.492Z,4.95
2022-10-14T08:23:42.398Z,3.55
2022-10-14T08:26:21.034Z,3.72
2022-10-14T08:28:49.238Z,2.95
2022-10-14T08:31:16.521Z,2.80
2022-10-14T08:33:43.393Z,3.45
2022-10-14T08:36:10.187Z,2.67
2022-10-14T08:38:36.852Z,5.78
2022-10-14T08:41:24.838Z,2.67
2022-10-14T08:44:02.757Z,2.70
2022-10-14T08:46:52.322Z,2.03
2022-10-14T08:49:22.372Z,2.70
2022-10-14T08:51:55.881Z,2.50
2022-10-14T08:54:38.021Z,2.33
2022-10-14T08:57:06.152Z,1.95
2022-10-14T08:59:36.986Z,3.05
2022-10-14T09:02:42.995Z,5.40
2022-10-14T09:05:18.100Z,3.10
2022-10-14T09:07:46.184Z,2.47
2022-10-14T09:10:27.138Z,2.55
2022-10-14T09:12:58.320Z,2.58
2022-10-14T09:15:38.168Z,2.80
2022-10-14T09:18:15.023Z,2.20
2022-10-14T09:20:42.970Z,3.65
2022-10-14T09:23:21.169Z,2.25
2022-10-14T09:25:59.569Z,2.30
2022-10-14T09:28:32.927Z,2.63
2022-10-14T09:30:59.692Z,2.08
2022-10-14T09:33:28.355Z,3.00
2022-10-14T09:35:55.465Z,3.33
2022-10-14T09:38:22.304Z,2.60
2022-10-14T09:40:53.786Z,2.65
2022-10-14T09:43:24.005Z,2.33
2022-10-14T09:46:07.067Z,3.00
2022-10-14T09:48:46.283Z,3.55
2022-10-14T09:51:28.312Z,3.80
2022-10-14T09:53:57.924Z,3.30
2022-10-14T09:56:40.684Z,3.05
2022-10-14T09:59:20.962Z,2.55
2022-10-14T10:01:53.099Z,5.43
2022-10-14T10:04:29.713Z,3.25
2022-10-14T10:06:56.797Z,2.92
2022-10-14T10:09:23.837Z,3.25
2022-10-14T10:11:50.527Z,3.38
2022-10-14T10:14:27.803Z,2.53
2022-10-14T10:17:09.870Z,3.53
2022-10-14T10:19:43.124Z,2.85
2022-10-14T10:22:24.570Z,3.42
2022-10-14T10:24:58.536Z,2.92
2022-10-14T10:27:40.897Z,5.20
2022-10-14T10:30:13.427Z,3.60
2022-10-14T10:32:56.904Z,3.63
2022-10-14T10:35:44.885Z,3.45
2022-10-14T10:38:23.414Z,2.92
2022-10-14T10:40:53.153Z,4.35
2022-10-14T10:44:09.132Z,3.83
2022-10-14T10:46:41.311Z,3.30
2022-10-14T10:49:24.624Z,2.60
2022-10-14T10:52:18.823Z,2.67
2022-10-14T10:55:02.879Z,3.25
2022-10-14T10:58:02.535Z,3.20
2022-10-14T11:00:45.347Z,3.00
2022-10-14T11:03:42.712Z,2.72
2022-10-14T11:06:44.593Z,3.22
2022-10-14T11:09:41.697Z,3.60
2022-10-14T11:12:36.161Z,4.88
2022-10-14T11:15:25.231Z,4.22
2022-10-14T11:18:06.831Z,4.25
2022-10-14T11:20:47.418Z,5.00
2022-10-14T11:23:35.888Z,3.50
2022-10-14T11:26:20.541Z,4.85
2022-10-14T11:28:59.412Z,4.07
2022-10-14T11:31:28.898Z,3.33
2022-10-14T11:34:05.333Z,4.93
2022-10-14T11:36:34.855Z,4.32
2022-10-14T11:39:18.525Z,3.60
2022-10-14T11:42:13.958Z,2.95
2022-10-14T11:44:42.862Z,3.60
2022-10-14T11:47:31.845Z,4.18
2022-10-14T11:50:13.164Z,5.20
2022-10-14T11:53:01.867Z,5.68
2022-10-14T11:55:34.524Z,13.75
2022-10-14T11:58:20.556Z,10.85
2022-10-14T12:01:12.252Z,7.72
2022-10-14T12:04:04.899Z,4.55
2022-10-14T12:06:37.940Z,2.85
2022-10-14T12:09:24.249Z,3.47
2022-10-14T12:11:59.421Z,3.75
2022-10-14T12:14:51.892Z,3.78
2022-10-14T12:17:35.846Z,6.88
2022-10-14T12:20:21.831Z,3.92
2022-10-14T12:22:49.964Z,3.92
2022-10-14T12:25:19.929Z,3.85
2022-10-14T12:27:48.114Z,3.00
2022-10-14T12:30:42.648Z,3.13
2022-10-14T12:33:11.714Z,3.60
2022-10-14T12:36:03.549Z,2.67
2022-10-14T12:38:31.214Z,3.38
2022-10-14T12:41:34.126Z,3.40
2022-10-14T12:44:15.943Z,3.13
2022-10-14T12:46:45.189Z,4.28
2022-10-14T12:49:37.977Z,4.60
2022-10-14T12:52:07.796Z,5.43
2022-10-14T12:54:37.654Z,3.72
2022-10-14T12:57:25.067Z,3.33
2022-10-14T12:59:53.426Z,4.03
2022-10-14T13:02:43.478Z,3.83
2022-10-14T13:05:32.565Z,4.18
2022-10-14T13:08:27.057Z,3.67
2022-10-14T13:10:59.729Z,3.70
2022-10-14T13:13:38.276Z,3.03
2022-10-14T13:16:20.650Z,3.75
2022-10-14T13:18:47.247Z,3.42
2022-10-14T13:21:25.464Z,3.50
2022-10-14T13:23:55.264Z,6.15
2022-10-14T13:26:42.726Z,4.43
2022-10-14T13:29:17.422Z,3.75
2022-10-14T13:31:52.915Z,4.22
2022-10-14T13:34:43.619Z,4.38
2022-10-14T13:37:29.700Z,4.68
2022-10-14T13:39:57.418Z,6.50
2022-10-14T13:42:31.870Z,5.82
2022-10-14T13:45:10.006Z,4.10
2022-10-14T13:47:36.816Z,4.57
2022-10-14T13:50:05.453Z,4.05
2022-10-14T13:52:34.297Z,3.28
2022-10-14T13:55:19.221Z,4.07
2022-10-14T13:58:22.136Z,3.47
2022-10-14T14:00:58.036Z,3.05
2022-10-14T14:03:30.232Z,2.85
2022-10-14T14:05:58.833Z,3.17
2022-10-14T14:08:42.176Z,2.10
2022-10-14T14:11:18.093Z,2.15
2022-10-14T14:14:07.419Z,1.70
2022-10-14T14:16:39.147Z,1.98
2022-10-14T14:19:09.122Z,1.95
2022-10-14T14:21:37.077Z,16.85
2022-10-14T14:24:16.473Z,2.50
2022-10-14T14:26:53.732Z,2.50
2022-10-14T14:29:27.324Z,2.92
2022-10-14T14:32:06.609Z,2.80
2022-10-14T14:34:36.808Z,2.28
2022-10-14T14:37:24.767Z,2.78
2022-10-14T14:40:00.241Z,2.88
2022-10-14T14:42:30.631Z,2.70
2022-10-14T14:45:01.509Z,3.15
2022-10-14T14:47:29.052Z,3.83
2022-10-14T14:50:11.925Z,3.50
2022-10-14T14:52:46.367Z,3.80
2022-10-14T14:55:36.667Z,6.38
2022-10-14T14:58:05.299Z,5.53
2022-10-14T15:00:32.476Z,6.03
2022-10-14T15:03:01.861Z,13.80
2022-10-14T15:05:29.727Z,6.50
2022-10-14T15:07:56.998Z,4.35
2022-10-14T15:10:30.319Z,6.03
2022-10-14T15:12:59.685Z,4.43
2022-10-14T15:15:30.947Z,3.60
2022-10-14T15:18:11.829Z,2.78
2022-10-14T15:20:38.725Z,2.92
2022-10-14T15:23:40.960Z,2.65
2022-10-14T15:26:33.389Z,2.63
2022-10-14T15:29:14.511Z,4.25
2022-10-14T15:31:44.117Z,4.93
2022-10-14T15:34:17.350Z,4.65
2022-10-14T15:36:44.158Z,4.10
2022-10-14T15:39:13.937Z,3.40
2022-10-14T15:41:41.766Z,3.95
2022-10-14T15:44:10.555Z,5.00
2022-10-14T15:46:57.060Z,7.05
2022-10-14T15:49:28.765Z,6.60
2022-10-14T15:51:58.880Z,6.28
2022-10-14T15:54:28.368Z,5.30
2022-10-14T15:59:30.144Z,5.13
2022-10-14T16:01:57.242Z,5.22
2022-10-14T16:04:28.957Z,4.40
2022-10-14T16:06:59.417Z,4.97
2022-10-14T16:09:28.532Z,5.35
2022-10-14T16:12:01.781Z,6.07
2022-10-14T16:14:28.461Z,5.88
2022-10-14T16:16:57.477Z,5.78
2022-10-14T16:19:24.108Z,6.03
2022-10-14T16:21:52.551Z,6.43
2022-10-14T16:24:21.489Z,6.05
2022-10-14T16:26:51.492Z,7.13
2022-10-14T16:29:23.689Z,4.78
2022-10-14T16:31:54.197Z,5.15
2022-10-14T16:34:25.071Z,5.15
2022-10-14T16:36:52.770Z,6.25
2022-10-14T16:39:19.680Z,8.02
2022-10-14T16:41:46.522Z,5.43
2022-10-14T16:44:27.518Z,6.90
2022-10-14T16:47:14.619Z,4.85
2022-10-14T16:49:46.506Z,4.40
2022-10-14T16:52:14.163Z,4.07
2022-10-14T16:54:40.866Z,4.13
2022-10-14T16:57:10.558Z,4.28
2022-10-14T16:59:37.748Z,4.78
2022-10-14T17:02:05.009Z,3.78
2022-10-14T17:04:31.600Z,3.92
2022-10-14T17:07:01.791Z,3.70
2022-10-14T17:09:28.384Z,3.95
2022-10-14T17:12:01.025Z,3.55
2022-10-14T17:14:31.222Z,3.58
2022-10-14T17:16:59.638Z,3.60
2022-10-14T17:19:27.243Z,3.00
2022-10-14T17:21:56.168Z,2.80
2022-10-14T17:24:23.145Z,3.22
2022-10-14T17:26:49.784Z,4.15
2022-10-14T17:29:16.486Z,3.80
2022-10-14T17:31:45.119Z,2.83
2022-10-14T17:34:12.254Z,3.92
2022-10-14T17:36:43.494Z,6.00
2022-10-14T17:39:22.864Z,3.92
2022-10-14T17:41:55.021Z,7.15
2022-10-14T17:44:21.614Z,3.00
2022-10-14T17:46:48.298Z,5.70
2022-10-14T17:49:14.970Z,4.22
2022-10-14T17:51:44.738Z,3.85
2022-10-14T17:54:17.711Z,4.15
2022-10-14T17:56:44.350Z,3.55
2022-10-14T17:59:17.947Z,4.10
2022-10-14T18:02:02.289Z,3.90
2022-10-14T18:04:36.023Z,4.22
2022-10-14T18:07:02.679Z,3.90
2022-10-14T18:09:33.962Z,3.63
2022-10-14T18:12:08.898Z,3.80
2022-10-14T18:15:08.240Z,3.55
2022-10-14T18:17:27.474Z,4.50
2022-10-14T18:19:56.566Z,3.65
2022-10-14T18:22:23.232Z,4.00
2022-10-14T18:24:56.606Z,4.00
2022-10-14T18:27:32.805Z,5.05
2022-10-14T18:29:59.414Z,10.30
2022-10-14T18:32:26.348Z,11.57
2022-10-14T18:34:53.136Z,9.27
2022-10-14T18:37:19.730Z,11.75
2022-10-14T18:39:46.540Z,8.85
2022-10-14T18:42:18.444Z,8.43
2022-10-14T18:44:48.452Z,10.18
2022-10-14T18:47:19.668Z,11.77
2022-10-14T18:49:49.499Z,11.88
2022-10-14T18:52:23.607Z,9.60
2022-10-14T18:55:04.138Z,8.82
2022-10-14T18:57:31.745Z,12.38
2022-10-14T18:59:59.107Z,8.80
2022-10-14T19:02:27.959Z,10.02
2022-10-14T19:04:55.957Z,12.68
2022-10-14T19:07:22.547Z,11.38
2022-10-14T19:09:54.124Z,12.45
2022-10-14T19:12:43.973Z,10.95
2022-10-14T19:15:15.556Z,7.82
2022-10-14T19:17:45.075Z,8.23
2022-10-14T19:20:12.259Z,7.05
2022-10-14T19:22:44.628Z,7.57
2022-10-14T19:27:39.490Z,5.28
2022-10-14T19:30:06.916Z,9.07
2022-10-14T19:32:36.065Z,4.90
2022-10-14T19:35:02.693Z,4.50
2022-10-14T19:37:31.660Z,4.38
2022-10-14T19:39:58.299Z,3.92
2022-10-14T19:42:32.289Z,3.77
2022-10-14T19:45:03.343Z,3.85
2022-10-14T19:47:37.413Z,3.40
2022-10-14T19:50:04.632Z,3.80
2022-10-14T19:52:33.819Z,3.92
2022-10-14T19:55:02.649Z,6.55
2022-10-14T19:57:29.316Z,4.22
2022-10-14T19:59:57.498Z,3.72
2022-10-14T20:02:24.635Z,6.55
2022-10-14T20:04:51.808Z,3.47
2022-10-14T20:07:19.871Z,3.47
2022-10-14T20:09:47.191Z,5.38
2022-10-14T20:12:15.249Z,7.07
2022-10-14T20:14:44.992Z,6.63
2022-10-14T20:17:14.016Z,8.90
2022-10-14T20:19:41.697Z,7.25
2022-10-14T20:22:08.289Z,4.10
2022-10-14T20:24:38.597Z,3.50
2022-10-14T20:27:11.023Z,5.65
2022-10-14T20:29:38.799Z,4.60
2022-10-14T20:32:05.677Z,3.40
2022-10-14T20:34:33.688Z,5.70
2022-10-14T20:37:05.078Z,4.68
2022-10-14T20:39:39.197Z,4.00
2022-10-14T20:42:08.984Z,9.45
2022-10-14T20:44:35.682Z,7.93
2022-10-14T20:47:04.493Z,7.90
2022-10-14T20:49:31.118Z,8.90
2022-10-14T20:51:57.728Z,6.03
2022-10-14T20:54:24.443Z,10.55
2022-10-14T20:56:52.078Z,6.72
2022-10-14T20:59:18.760Z,8.82
2022-10-14T21:01:45.375Z,7.93
2022-10-14T21:04:12.044Z,7.10
2022-10-14T21:06:43.828Z,7.35
2022-10-14T21:09:12.681Z,6.10
2022-10-14T21:11:39.552Z,10.38
2022-10-14T21:14:08.756Z,8.82
2022-10-14T21:16:36.926Z,8.45
2022-10-14T21:19:08.825Z,10.80
2022-10-14T21:21:45.355Z,8.05
2022-10-14T21:24:18.948Z,7.75
2022-10-14T21:26:47.829Z,8.13
2022-10-14T21:29:14.672Z,7.75
2022-10-14T21:31:44.403Z,9.45
2022-10-14T21:34:14.449Z,7.38
2022-10-14T21:36:42.452Z,7.82
2022-10-14T21:39:22.881Z,6.93
2022-10-14T21:41:50.168Z,7.65
2022-10-14T21:44:20.262Z,8.25
2022-10-14T21:46:47.749Z,7.15
2022-10-14T21:49:20.131Z,7.32
2022-10-14T21:51:46.784Z,8.43
2022-10-14T21:54:14.166Z,8.20
2022-10-14T21:56:46.128Z,8.65
2022-10-14T21:59:15.396Z,8.35
2022-10-14T22:01:42.038Z,8.35
2022-10-14T22:04:13.133Z,8.52
2022-10-14T22:06:39.715Z,7.75
2022-10-14T22:09:07.890Z,8.63
2022-10-14T22:11:45.881Z,7.97
2022-10-14T22:14:17.152Z,8.15
2022-10-14T22:16:45.100Z,8.68
2022-10-14T22:19:13.018Z,8.70
2022-10-14T22:21:46.993Z,8.60
2022-10-14T22:24:13.745Z,7.78
2022-10-14T22:26:45.001Z,8.23
2022-10-14T22:29:16.304Z,9.67
2022-10-14T22:31:43.808Z,8.93
2022-10-14T22:34:14.085Z,7.78
2022-10-14T22:36:41.437Z,7.32
2022-10-14T22:39:12.435Z,7.47
2022-10-14T22:41:41.072Z,7.22
2022-10-14T22:44:09.140Z,7.68
2022-10-14T22:46:38.113Z,7.30
2022-10-14T22:49:07.251Z,7.15
2022-10-14T22:51:39.997Z,7.00
2022-10-14T22:54:09.076Z,7.00
2022-10-14T22:56:35.909Z,7.28
2022-10-14T22:59:08.215Z,7.78
2022-10-14T23:01:35.485Z,8.05
2022-10-14T23:04:03.922Z,7.18
2022-10-14T23:06:31.440Z,7.28
2022-10-14T23:09:00.977Z,6.72
2022-10-14T23:11:29.297Z,6.50
2022-10-14T23:13:56.039Z,6.88
2022-10-14T23:16:25.632Z,6.38
2022-10-14T23:18:55.707Z,6.22
2022-10-14T23:21:28.101Z,7.68
2022-10-14T23:26:28.362Z,7.40
2022-10-14T23:28:59.340Z,7.13
2022-10-14T23:31:36.786Z,6.13
2022-10-14T23:34:06.706Z,6.95
2022-10-14T23:36:33.771Z,7.00
2022-10-14T23:39:00.400Z,7.00
2022-10-14T23:41:27.006Z,7.05
2022-10-14T23:43:56.860Z,6.72
2022-10-14T23:46:23.973Z,6.60
2022-10-14T23:49:01.217Z,5.70
2022-10-14T23:51:35.354Z,8.50
2022-10-14T23:54:03.110Z,9.27
2022-10-14T23:56:29.799Z,7.57
2022-10-14T23:58:59.670Z,9.40
